Metar z pełnej godziny Komunikat METAR ze strony awiacja.imgw.pl Metar G00 EPRZ METAR EPRZ 231300Z VRB03KT CAVOK 21/04 Q1012 =